Terminal Aerodrome Forecast
Issued by NWS Dallas/Fort Worth, TX

Home | Current Version | Previous Version | Text Only | Print | Product List | Glossary On
Versions: 1 2 3 4 5 6 7 8 9 10 11 12 13 14 15 16 17 18 19 20 21 22 23 24 25 26 27
720
FTUS44 KFWD 231731
TAFDFW
TAF
KDFW 231731Z 2318/2424 20015G25KT P6SM SKC
     FM240100 19011KT P6SM FEW250
     FM240700 25007KT P6SM FEW110 SCT250
     FM241200 32008KT P6SM SCT250
     FM241600 33014KT P6SM SCT250=

USA.gov is the U.S. government's official web portal to all federal, state and local government web resources and services.